Catlettsburg, KY (41129)

06:34 PM EDT on Μάρτιος 26, 2015 (GMT -0400)
Kenova | | Change Station
CLOSE
Current Station
Personal Weather Stations
Location: Kenova, WV
Elevation: 554 ft
Nearby Weather Stations

Elev 554 ft 38.40 °N, 82.57 °W | Updated 6 minutes ago

Νεφοσκεπής
Νεφοσκεπής
48.2 ° F
Feels Like 48 ° F
N
2.2
Ανεμος Μεταβλητός Ανεμος from Δυτικός

Σήμερα
High -- | Low -- ° F
--% Chance of Precip.
Yesterday
High -- | Low -- ° F
Precip. -- in
7:25 AM 7:47 PM
Μηνίσκος, 46% visible
Ατμοσφαιρική Πίεση 29.85 in
Ορατότητα 10.0 Μίλια
Σύννεφα Few 2100 ft
Διάσπαρτα Νέφη 2800 ft
Νεφοσκεπής 4400 ft
Δείκτης Ψυχρότητας 48 ° F
Σημείο Δρόσου 43 ° F
Υγρασία 83%
Rainfall 0.10 in
Snow Depth Not available.
Υπεριώδης ακτινοβολία (UV) 0 out of 12
Pollen 4.80 out of 12
Air Quality Not available.
Flu Activity Not available.
SPECI KHTS 262230Z 33008KT 10SM FEW021 SCT028 OVC044 08/06 A2985 RMK AO2 RAB2157E10 P0000 T00780056

More Conditions Fewer Conditions

Ατμοσφαιρική Πίεση 29.85 in
Ορατότητα 10.0 Μίλια
Σύννεφα Few 2100 ft
Διάσπαρτα Νέφη 2800 ft
Νεφοσκεπής 4400 ft
Δείκτης Ψυχρότητας 48 ° F
Σημείο Δρόσου 43 ° F
Υγρασία 83%
Rainfall 0.10 in
Snow Depth Not available.
Υπεριώδης ακτινοβολία (UV) 0 out of 12
Pollen 4.80 out of 12
Air Quality Not available.
Flu Activity Not available.
SPECI KHTS 262230Z 33008KT 10SM FEW021 SCT028 OVC044 08/06 A2985 RMK AO2 RAB2157E10 P0000 T00780056

More Conditions Fewer Conditions

10-Day Weather Forecast

Almanac

Αστρονομία

Mar. 26, 2015 Rise Set
Actual Time
Civil Twilight
Nautical Twilight
Astronomical Twilight
Moon
Length Of Visible Light
Διάρκεια ημέρας
Tomorrow will be .
, % of the Moon is Illuminated

Today's Extremes

State Highs State Lows

Community

WunderPhotos

Upload Photos

1,808,628 photos uploaded!

WunderBlogs® & News

Nearby

Air Quality

  Air Quality AQ Index Pollutant
Not available.

Snow Depth

Station Depth Elevation

Earthquake Activity

City Distance Mag. Time & Date
Minimum magnitude displayed is 2.5.

Coastal Water Temperatures

Τοποθεσία Θερμοκρασία

Stations

Nearby Weather Stations

Station Location Temp Δείκτης Ψυχρότητας Σημείο Δρόσου Υγρασία Ανεμος Precip. Elev Ενημερώθηκε Type